Time;durP1;ratioP1;P1;durP2;ratioP2;P2;SDS_P1;SDS_P2;PMS_P1;PMS_P2;Temp;Humidity;BMP_temperature;BMP_pressure;BME280_temperature;BME280_humidity;BME280_pressure;Samples;Min_cycle;Max_cycle;Signal;HPM_P1;HPM_P2
2022/11/01 00:01:30;;;;;;;10.00;9.50;;;;;;;-143.83;100.00;62900.06;5086185;28;20503;-66
2022/11/01 00:03:56;;;;;;;9.90;9.40;;;;;;;-143.83;100.00;62900.06;5084336;28;20032;-65
2022/11/01 00:06:22;;;;;;;10.00;9.50;;;;;;;-143.83;100.00;62900.06;5086993;28;20051;-66
2022/11/01 00:08:47;;;;;;;10.02;9.52;;;;;;;-143.83;100.00;62900.06;5090108;28;20024;-65
2022/11/01 00:11:15;;;;;;;10.65;10.05;;;;;;;-143.83;100.00;62900.06;5084863;28;20074;-65
2022/11/01 00:13:43;;;;;;;9.68;9.18;;;;;;;-143.83;100.00;62900.06;5085056;28;20024;-65
2022/11/01 00:16:08;;;;;;;9.88;9.38;;;;;;;-143.83;100.00;62900.06;5091572;28;20024;-66
2022/11/01 00:18:34;;;;;;;9.75;9.27;;;;;;;-143.83;100.00;62900.06;5081595;28;20490;-66
2022/11/01 00:20:59;;;;;;;9.98;9.48;;;;;;;-143.83;100.00;62900.06;5085012;28;20023;-65
2022/11/01 00:23:25;;;;;;;9.93;9.43;;;;;;;-143.83;100.00;62900.06;5089363;28;20031;-65
2022/11/01 00:25:50;;;;;;;10.07;9.57;;;;;;;-143.83;100.00;62900.06;5086737;28;20398;-66
2022/11/01 00:28:16;;;;;;;9.80;9.30;;;;;;;-143.83;100.00;62900.06;5084954;28;20027;-66
2022/11/01 00:30:43;;;;;;;10.35;9.82;;;;;;;-143.83;100.00;62900.06;5088345;28;20036;-65
2022/11/01 00:33:08;;;;;;;10.55;9.95;;;;;;;-143.83;100.00;62900.06;5086959;28;20077;-66
2022/11/01 00:35:37;;;;;;;9.73;9.23;;;;;;;-143.83;100.00;62900.06;5081568;28;20020;-66
2022/11/01 00:38:04;;;;;;;9.95;9.45;;;;;;;-143.83;100.00;62900.06;5080933;28;20052;-65
2022/11/01 00:40:30;;;;;;;9.70;9.20;;;;;;;-143.83;100.00;62900.06;5086300;28;20028;-65
2022/11/01 00:42:56;;;;;;;9.85;9.35;;;;;;;-143.83;100.00;62900.06;5088342;28;20028;-66
2022/11/01 00:45:21;;;;;;;9.88;9.38;;;;;;;-143.83;100.00;62900.06;5089277;28;20025;-66
2022/11/01 00:47:47;;;;;;;9.57;9.07;;;;;;;-143.83;100.00;62900.06;5086072;28;20415;-66
2022/11/01 00:50:13;;;;;;;10.77;10.18;;;;;;;-143.83;100.00;62900.06;5103631;28;20027;-66
2022/11/01 00:52:39;;;;;;;9.70;9.20;;;;;;;-143.83;100.00;62900.06;5084736;28;20056;-65
2022/11/01 00:55:05;;;;;;;10.32;9.77;;;;;;;-143.83;100.00;62900.06;5074291;28;20028;-65
2022/11/01 00:57:31;;;;;;;9.57;9.07;;;;;;;-143.83;100.00;62900.06;5088251;28;20020;-66
2022/11/01 00:59:56;;;;;;;9.93;9.43;;;;;;;-143.83;100.00;62900.06;5087927;28;20026;-66
2022/11/01 01:02:22;;;;;;;9.85;9.35;;;;;;;-143.83;100.00;62900.06;5081012;28;20039;-66
2022/11/01 01:04:49;;;;;;;9.45;9.00;;;;;;;-143.83;100.00;62900.06;5080158;28;20475;-66
2022/11/01 01:07:15;;;;;;;9.95;9.45;;;;;;;-143.83;100.00;62900.06;5083224;28;20107;-66
2022/11/01 01:09:40;;;;;;;9.90;9.40;;;;;;;-143.83;100.00;62900.06;5080350;28;20490;-66
2022/11/01 01:12:06;;;;;;;9.98;9.48;;;;;;;-143.83;100.00;62900.06;5084479;28;20036;-65
2022/11/01 01:14:32;;;;;;;9.57;9.07;;;;;;;-143.83;100.00;62900.06;5083858;28;20031;-66
2022/11/01 01:16:57;;;;;;;10.15;9.65;;;;;;;-143.83;100.00;62900.06;5081689;28;20446;-66
2022/11/01 01:19:23;;;;;;;10.10;9.60;;;;;;;-143.83;100.00;62900.06;5088751;28;20066;-65
2022/11/01 01:21:48;;;;;;;9.75;9.25;;;;;;;-143.83;100.00;62900.06;5086915;28;20030;-66
2022/11/01 01:24:14;;;;;;;9.30;8.88;;;;;;;-143.83;100.00;62900.06;5082741;28;20048;-66
2022/11/01 01:26:39;;;;;;;10.00;9.50;;;;;;;-143.83;100.00;62900.06;5080103;28;20131;-66
2022/11/01 01:29:05;;;;;;;10.23;9.68;;;;;;;-143.83;100.00;62900.06;5085151;28;20069;-66
2022/11/01 01:31:30;;;;;;;11.07;10.48;;;;;;;-143.83;100.00;62900.06;5084361;28;20028;-64
2022/11/01 01:33:57;;;;;;;9.90;9.40;;;;;;;-143.83;100.00;62900.06;5082321;28;20038;-65
2022/11/01 01:36:22;;;;;;;9.35;8.85;;;;;;;-143.83;100.00;62900.06;5083273;28;20012;-65
2022/11/01 01:38:51;;;;;;;9.82;9.32;;;;;;;-143.83;100.00;62900.06;5084961;28;20085;-65
2022/11/01 01:44:02;;;;;;;9.68;9.18;;;;;;;-143.83;100.00;62900.06;5085121;28;20098;-65
2022/11/01 01:46:27;;;;;;;9.68;9.18;;;;;;;-143.83;100.00;62900.06;5086455;28;20028;-66
2022/11/01 01:48:58;;;;;;;9.88;9.38;;;;;;;-143.83;100.00;62900.06;5083026;28;20982;-65
2022/11/01 01:51:26;;;;;;;9.77;9.27;;;;;;;-143.83;100.00;62900.06;5081152;28;20519;-66
2022/11/01 01:53:54;;;;;;;9.35;8.90;;;;;;;-143.83;100.00;62900.06;5083190;28;20045;-66
2022/11/01 01:56:29;;;;;;;9.68;9.18;;;;;;;-143.83;100.00;62900.06;5076416;28;20024;-65
2022/11/01 01:58:57;;;;;;;10.68;10.07;;;;;;;-143.83;100.00;62900.06;5079277;28;20032;-65
2022/11/01 02:01:24;;;;;;;9.73;9.23;;;;;;;-143.83;100.00;62900.06;5084815;28;20024;-65
2022/11/01 02:03:50;;;;;;;9.60;9.10;;;;;;;-143.83;100.00;62900.06;5084911;28;20060;-65
2022/11/01 02:06:21;;;;;;;9.73;9.23;;;;;;;-143.83;100.00;62900.06;5086193;28;20067;-66
2022/11/01 02:08:58;;;;;;;9.85;9.35;;;;;;;-143.83;100.00;62900.06;5082064;28;20497;-66
2022/11/01 02:11:24;;;;;;;9.75;9.25;;;;;;;-143.83;100.00;62900.06;5087869;28;20363;-66
2022/11/01 02:13:50;;;;;;;9.63;9.13;;;;;;;-143.83;100.00;62900.06;5083967;28;20079;-66
2022/11/01 02:16:15;;;;;;;10.07;9.57;;;;;;;-143.83;100.00;62900.06;5086801;28;20107;-66
2022/11/01 02:19:02;;;;;;;9.45;8.98;;;;;;;-143.83;100.00;62900.06;5082452;28;20020;-66
2022/11/01 02:21:47;;;;;;;9.43;8.93;;;;;;;-143.83;100.00;62900.06;5084349;28;20032;-66
2022/11/01 02:24:31;;;;;;;;;;;;;;;-143.83;100.00;62900.06;5081035;28;20046;-66
2022/11/01 02:27:02;;;;;;;9.57;9.07;;;;;;;-143.83;100.00;62900.06;5085655;28;19939;-64
2022/11/01 02:29:34;;;;;;;9.70;9.20;;;;;;;-143.83;100.00;62900.06;5081512;28;20043;-66
2022/11/01 02:32:33;;;;;;;10.00;9.50;;;;;;;-143.83;100.00;62900.06;5078242;28;20514;-65
2022/11/01 02:35:01;;;;;;;10.13;9.63;;;;;;;-143.83;100.00;62900.06;5076752;28;20395;-66
2022/11/01 02:37:50;;;;;;;10.40;9.82;;;;;;;-143.83;100.00;62900.06;5084659;28;20025;-65
2022/11/01 02:40:27;;;;;;;9.32;8.82;;;;;;;-143.83;100.00;62900.06;5058524;28;20381;-66
2022/11/01 02:43:00;;;;;;;9.15;8.75;;;;;;;-143.83;100.00;62900.06;5081966;28;20017;-65
2022/11/01 02:45:41;;;;;;;9.68;9.18;;;;;;;-143.83;100.00;62900.06;5082899;28;20036;-65
2022/11/01 02:48:07;;;;;;;10.70;10.10;;;;;;;-143.83;100.00;62900.06;5077830;28;20058;-65
2022/11/01 02:50:39;;;;;;;9.73;9.23;;;;;;;-143.83;100.00;62900.06;5080446;28;20495;-65
2022/11/01 02:53:06;;;;;;;9.90;9.40;;;;;;;-143.83;100.00;62900.06;5081794;28;20056;-66
2022/11/01 02:55:34;;;;;;;10.13;9.52;;;;;;;-143.83;100.00;62900.06;5085175;28;20106;-65
2022/11/01 02:58:04;;;;;;;10.50;9.90;;;;;;;-143.83;100.00;62900.06;5078421;28;20467;-65
2022/11/01 03:00:33;;;;;;;9.20;8.80;;;;;;;-143.83;100.00;62900.06;5087086;28;20103;-66
2022/11/01 03:03:20;;;;;;;9.15;8.75;;;;;;;-143.83;100.00;62900.06;5086253;28;20021;-66
2022/11/01 03:05:58;;;;;;;9.40;8.90;;;;;;;-143.83;100.00;62900.06;5081973;28;20086;-66
2022/11/01 03:08:45;;;;;;;9.60;9.10;;;;;;;-143.83;100.00;62900.06;5076913;28;20108;-65
2022/11/01 03:11:23;;;;;;;11.00;10.35;;;;;;;-143.83;100.00;62900.06;5078829;28;20058;-67
2022/11/01 03:13:59;;;;;;;9.82;9.32;;;;;;;-143.83;100.00;62900.06;5083282;28;20032;-66
2022/11/01 03:16:50;;;;;;;9.40;8.90;;;;;;;-143.83;100.00;62900.06;5080441;28;20077;-65
2022/11/01 03:19:23;;;;;;;10.43;9.82;;;;;;;-143.83;100.00;62900.06;5081371;28;20415;-64
2022/11/01 03:22:02;;;;;;;9.95;9.45;;;;;;;-143.83;100.00;62900.06;5080382;28;20039;-64
2022/11/01 03:24:35;;;;;;;9.73;9.23;;;;;;;-143.83;100.00;62900.06;5079841;28;20062;-65
2022/11/01 03:27:10;;;;;;;10.32;9.77;;;;;;;-143.83;100.00;62900.06;5080253;28;20471;-65
2022/11/01 03:29:38;;;;;;;10.43;9.82;;;;;;;-143.83;100.00;62900.06;5086069;28;20049;-66
2022/11/01 03:32:05;;;;;;;9.88;9.38;;;;;;;-143.83;100.00;62900.06;5079616;28;20020;-66
2022/11/01 03:34:34;;;;;;;10.23;9.73;;;;;;;-143.83;100.00;62900.06;5078539;28;20023;-65
2022/11/01 03:37:04;;;;;;;10.32;9.80;;;;;;;-143.83;100.00;62900.06;5083942;28;20456;-65
2022/11/01 03:39:51;;;;;;;10.10;9.60;;;;;;;-143.83;100.00;62900.06;5081887;28;20047;-66
2022/11/01 03:42:22;;;;;;;11.32;10.68;;;;;;;-143.83;100.00;62900.06;5085351;28;20023;-65
2022/11/01 03:44:58;;;;;;;10.10;9.60;;;;;;;-143.83;100.00;62900.06;5070811;28;20054;-65
2022/11/01 03:47:24;;;;;;;10.63;10.02;;;;;;;-143.83;100.00;62900.06;5081721;28;20020;-65
2022/11/01 03:50:18;;;;;;;10.20;9.70;;;;;;;-143.83;100.00;62900.06;5083343;28;20032;-66
2022/11/01 03:52:44;;;;;;;11.30;10.68;;;;;;;-143.83;100.00;62900.06;5078270;28;20113;-65
2022/11/01 03:55:21;;;;;;;10.95;10.35;;;;;;;-143.83;100.00;62900.06;5083032;28;20019;-65
2022/11/01 03:57:51;;;;;;;11.07;10.48;;;;;;;-143.83;100.00;62900.06;5084937;28;20054;-65
2022/11/01 04:00:20;;;;;;;10.50;9.93;;;;;;;-143.83;100.00;62900.06;5077036;28;20074;-64
2022/11/01 04:02:46;;;;;;;11.43;10.75;;;;;;;-143.83;100.00;62900.06;5086374;28;20039;-64
2022/11/01 04:05:12;;;;;;;10.07;9.57;;;;;;;-143.83;100.00;62900.06;5084497;28;20434;-65
2022/11/01 04:07:41;;;;;;;10.38;9.88;;;;;;;-143.83;100.00;62900.06;5093506;28;20047;-64
2022/11/01 04:10:07;;;;;;;10.23;9.73;;;;;;;-143.83;100.00;62900.06;5084524;28;20055;-64
2022/11/01 04:12:32;;;;;;;11.10;10.50;;;;;;;-143.83;100.00;62900.06;5085824;28;20067;-64
2022/11/01 04:20:32;;;;;;;11.40;10.75;;;;;;;-143.83;100.00;62900.06;5084132;28;20101;-65
2022/11/01 04:22:58;;;;;;;10.27;9.77;;;;;;;-143.83;100.00;62900.06;5085241;28;20052;-65
2022/11/01 04:25:24;;;;;;;11.85;11.15;;;;;;;-143.83;100.00;62900.06;5079188;28;20031;-63
2022/11/01 04:27:49;;;;;;;11.40;10.70;;;;;;;-143.83;100.00;62900.06;5108489;27;20112;-64
2022/11/01 04:30:15;;;;;;;11.30;10.60;;;;;;;-143.83;100.00;62900.06;5086171;28;20036;-64
2022/11/01 04:32:44;;;;;;;10.57;9.98;;;;;;;-143.83;100.00;62900.06;5083474;28;20063;-65
2022/11/01 04:35:11;;;;;;;11.32;10.63;;;;;;;-143.83;100.00;62900.06;5085654;28;20077;-64
2022/11/01 04:37:37;;;;;;;10.90;10.30;;;;;;;-143.83;100.00;62900.06;5084716;28;20017;-64
2022/11/01 04:40:06;;;;;;;12.50;11.70;;;;;;;-143.83;100.00;62900.06;5084696;28;20033;-63
2022/11/01 04:42:33;;;;;;;11.55;10.85;;;;;;;-143.83;100.00;62900.06;5082347;28;20028;-63
2022/11/01 04:44:59;;;;;;;10.73;10.13;;;;;;;-143.83;100.00;62900.06;5086032;28;20065;-63
2022/11/01 04:47:25;;;;;;;12.45;11.65;;;;;;;-143.83;100.00;62900.06;5085648;28;20067;-62
2022/11/01 04:49:50;;;;;;;11.07;10.48;;;;;;;-143.83;100.00;62900.06;5089163;28;20032;-62
2022/11/01 04:52:16;;;;;;;10.70;10.10;;;;;;;-143.83;100.00;62900.06;5078374;28;20040;-62
2022/11/01 04:54:41;;;;;;;10.20;9.70;;;;;;;-143.83;100.00;62900.06;5085678;28;20059;-62
2022/11/01 04:57:07;;;;;;;11.80;11.10;;;;;;;-143.83;100.00;62900.06;5086706;28;20374;-63
2022/11/01 04:59:32;;;;;;;10.43;9.82;;;;;;;-143.83;100.00;62900.06;5086427;28;20143;-63
2022/11/01 05:01:58;;;;;;;12.18;11.48;;;;;;;-143.83;100.00;62900.06;5083782;28;20062;-62
2022/11/01 05:04:23;;;;;;;10.70;10.10;;;;;;;-143.83;100.00;62900.06;5087021;28;20027;-62
2022/11/01 05:06:49;;;;;;;11.20;10.50;;;;;;;-143.83;100.00;62900.06;5089635;28;20028;-64
2022/11/01 05:09:14;;;;;;;11.95;11.25;;;;;;;-143.83;100.00;62900.06;5089490;28;20040;-63
2022/11/01 05:11:40;;;;;;;10.43;9.93;;;;;;;-143.83;100.00;62900.06;5086918;28;20095;-63
2022/11/01 05:14:05;;;;;;;12.15;11.43;;;;;;;-143.83;100.00;62900.06;5088718;28;20062;-64
2022/11/01 05:16:30;;;;;;;10.18;9.68;;;;;;;-143.83;100.00;62900.06;5087141;28;20052;-67
2022/11/01 05:18:56;;;;;;;10.52;9.98;;;;;;;-143.83;100.00;62900.06;5090133;28;20017;-66
2022/11/01 05:21:21;;;;;;;12.55;11.75;;;;;;;-143.83;100.00;62900.06;5082629;28;20536;-66
2022/11/01 05:23:47;;;;;;;12.10;11.32;;;;;;;-143.83;100.00;62900.06;5082287;28;20036;-66
2022/11/01 05:26:13;;;;;;;11.45;10.75;;;;;;;-143.83;100.00;62900.06;5083013;28;20028;-65
2022/11/01 05:28:39;;;;;;;10.95;10.35;;;;;;;-143.83;100.00;62900.06;5083266;28;20031;-66
2022/11/01 05:31:04;;;;;;;10.80;10.20;;;;;;;-143.83;100.00;62900.06;5079119;28;20024;-66
2022/11/01 05:33:30;;;;;;;10.65;10.05;;;;;;;-143.83;100.00;62900.06;5085028;28;20178;-66
2022/11/01 05:35:55;;;;;;;10.55;9.95;;;;;;;-143.83;100.00;62900.06;5082511;28;20384;-67
2022/11/01 05:38:21;;;;;;;11.52;10.82;;;;;;;-143.83;100.00;62900.06;5084924;28;20066;-67
2022/11/01 05:40:46;;;;;;;12.25;11.45;;;;;;;-143.83;100.00;62900.06;5081744;28;20051;-67
2022/11/01 05:43:12;;;;;;;13.07;12.18;;;;;;;-143.83;100.00;62900.06;5077640;28;20553;-67
2022/11/01 05:45:37;;;;;;;11.63;10.93;;;;;;;-143.83;100.00;62900.06;5078041;28;20033;-67
2022/11/01 05:48:03;;;;;;;11.82;11.13;;;;;;;-143.83;100.00;62900.06;5079313;28;20482;-67
2022/11/01 05:50:29;;;;;;;10.82;10.23;;;;;;;-143.83;100.00;62900.06;5087392;28;20452;-67
2022/11/01 05:53:03;;;;;;;11.15;10.52;;;;;;;-143.83;100.00;62900.06;5083012;28;20060;-67
2022/11/01 05:55:28;;;;;;;10.63;10.02;;;;;;;-143.83;100.00;62900.06;5086460;28;20032;-68
2022/11/01 05:57:57;;;;;;;10.80;10.20;;;;;;;-143.83;100.00;62900.06;5077925;28;20057;-68
2022/11/01 06:00:23;;;;;;;11.45;10.75;;;;;;;-143.83;100.00;62900.06;5083153;28;20661;-67
2022/11/01 06:02:48;;;;;;;10.43;9.90;;;;;;;-143.83;100.00;62900.06;5083070;28;20028;-68
2022/11/01 06:05:13;;;;;;;11.68;10.98;;;;;;;-143.83;100.00;62900.06;5081452;28;20028;-69
2022/11/01 06:07:39;;;;;;;11.50;10.80;;;;;;;-143.83;100.00;62900.06;5074727;28;20031;-68
2022/11/01 06:10:05;;;;;;;12.00;11.30;;;;;;;-143.83;100.00;62900.06;5079964;28;20118;-68
2022/11/01 06:12:31;;;;;;;10.70;10.10;;;;;;;-143.83;100.00;62900.06;5082106;28;20027;-69
2022/11/01 06:14:57;;;;;;;10.50;9.90;;;;;;;-143.83;100.00;62900.06;5085009;28;20040;-65
2022/11/01 06:17:25;;;;;;;11.55;10.85;;;;;;;-143.83;100.00;62900.06;5079709;28;20023;-75
2022/11/01 06:19:51;;;;;;;11.57;10.88;;;;;;;-143.83;100.00;62900.06;5077636;28;20036;-64
2022/11/01 06:22:16;;;;;;;12.70;11.90;;;;;;;-143.83;100.00;62900.06;5088109;28;20073;-66
2022/11/01 06:24:42;;;;;;;11.23;10.57;;;;;;;-143.83;100.00;62900.06;5075184;28;20569;-65
2022/11/01 06:27:07;;;;;;;10.73;10.13;;;;;;;-143.83;100.00;62900.06;5083092;28;20032;-64
2022/11/01 06:29:33;;;;;;;10.52;9.93;;;;;;;-143.83;100.00;62900.06;5080770;28;20027;-66
2022/11/01 06:31:58;;;;;;;11.55;10.85;;;;;;;-143.83;100.00;62900.06;5082357;28;20032;-65
2022/11/01 06:34:24;;;;;;;10.00;9.50;;;;;;;-143.83;100.00;62900.06;5079175;28;20480;-63
2022/11/01 06:36:49;;;;;;;11.32;10.73;;;;;;;-143.83;100.00;62900.06;5083111;28;20024;-64
2022/11/01 06:39:16;;;;;;;9.88;9.38;;;;;;;-143.83;100.00;62900.06;5085116;28;20042;-64
2022/11/01 06:41:42;;;;;;;10.20;9.70;;;;;;;-143.83;100.00;62900.06;5080240;28;20396;-64
2022/11/01 06:44:07;;;;;;;10.70;10.10;;;;;;;-143.83;100.00;62900.06;5086500;28;20024;-64
2022/11/01 06:46:33;;;;;;;10.30;9.80;;;;;;;-143.83;100.00;62900.06;5081495;28;20481;-64
2022/11/01 06:48:58;;;;;;;10.77;10.18;;;;;;;-143.83;100.00;62900.06;5080262;28;20021;-64
2022/11/01 06:51:24;;;;;;;9.80;9.30;;;;;;;-143.83;100.00;62900.06;5088475;28;20034;-64
2022/11/01 06:53:49;;;;;;;10.23;9.73;;;;;;;-143.83;100.00;62900.06;5079449;28;20487;-64
2022/11/01 06:56:14;;;;;;;10.43;9.93;;;;;;;-143.83;100.00;62900.06;5077555;28;20039;-63
2022/11/01 06:58:40;;;;;;;10.43;9.93;;;;;;;-143.83;100.00;62900.06;5087028;28;20097;-63
2022/11/01 07:01:05;;;;;;;11.55;10.90;;;;;;;-143.83;100.00;62900.06;5077626;28;20501;-64
2022/11/01 07:03:31;;;;;;;9.98;9.48;;;;;;;-143.83;100.00;62900.06;5078205;28;20386;-63
2022/11/01 07:05:59;;;;;;;10.52;10.00;;;;;;;-143.83;100.00;62900.06;5077238;28;20337;-64
2022/11/01 07:08:25;;;;;;;10.75;10.15;;;;;;;-143.83;100.00;62900.06;5077832;28;20024;-63
2022/11/01 07:10:50;;;;;;;9.82;9.32;;;;;;;-143.83;100.00;62900.06;5083722;28;20024;-65
2022/11/01 07:13:16;;;;;;;9.90;9.40;;;;;;;-143.83;100.00;62900.06;5085179;28;20039;-63
2022/11/01 07:15:41;;;;;;;10.07;9.57;;;;;;;-143.83;100.00;62900.06;5086176;28;20024;-63
2022/11/01 07:18:07;;;;;;;10.90;10.30;;;;;;;-143.83;100.00;62900.06;5083155;28;20048;-64
2022/11/01 07:20:40;;;;;;;10.40;9.90;;;;;;;-143.83;100.00;62900.06;5085533;28;20772;-64
2022/11/01 07:23:09;;;;;;;10.75;10.25;;;;;;;-143.83;100.00;62900.06;5062088;28;20471;-63
2022/11/01 07:25:35;;;;;;;10.40;9.90;;;;;;;-143.83;100.00;62900.06;5081215;28;20105;-64
2022/11/01 07:28:00;;;;;;;10.82;10.32;;;;;;;-143.83;100.00;62900.06;5085161;28;20495;-65
2022/11/01 07:30:27;;;;;;;10.50;10.00;;;;;;;-143.83;100.00;62900.06;5079440;28;20031;-65
2022/11/01 07:32:56;;;;;;;10.48;9.98;;;;;;;-143.83;100.00;62900.06;5080805;28;20066;-64
2022/11/01 07:35:23;;;;;;;10.82;10.32;;;;;;;-143.83;100.00;62900.06;5076918;28;20407;-64
2022/11/01 07:37:49;;;;;;;11.30;10.73;;;;;;;-143.83;100.00;62900.06;5088902;28;20446;-64
2022/11/01 07:40:15;;;;;;;10.52;10.02;;;;;;;-143.83;100.00;62900.06;5085135;28;20036;-64
2022/11/01 07:42:42;;;;;;;10.55;10.05;;;;;;;-143.83;100.00;62900.06;5087269;28;20024;-64
2022/11/01 07:45:09;;;;;;;10.60;10.10;;;;;;;-143.83;100.00;62900.06;5087398;28;20115;-63
2022/11/01 07:47:34;;;;;;;10.43;9.93;;;;;;;-143.83;100.00;62900.06;5092267;28;20024;-64
2022/11/01 07:49:59;;;;;;;11.20;10.70;;;;;;;-143.83;100.00;62900.06;5085755;28;20377;-63
2022/11/01 07:52:25;;;;;;;10.90;10.40;;;;;;;-143.83;100.00;62900.06;5087793;28;20036;-64
2022/11/01 07:54:50;;;;;;;10.75;10.25;;;;;;;-143.83;100.00;62900.06;5086912;28;20035;-63
2022/11/01 07:57:15;;;;;;;10.60;10.10;;;;;;;-143.83;100.00;62900.06;5086462;28;20077;-63
2022/11/01 07:59:41;;;;;;;10.88;10.38;;;;;;;-143.83;100.00;62900.06;5087182;28;20028;-65
2022/11/01 08:02:08;;;;;;;10.93;10.43;;;;;;;-143.83;100.00;62900.06;5063412;28;20034;-64
2022/11/01 08:04:33;;;;;;;11.05;10.55;;;;;;;-143.83;100.00;62900.06;5077728;28;20029;-64
2022/11/01 08:06:59;;;;;;;10.90;10.40;;;;;;;-143.83;100.00;62900.06;5088090;28;20037;-64
2022/11/01 08:09:24;;;;;;;10.75;10.25;;;;;;;-143.83;100.00;62900.06;5081920;28;20506;-64
2022/11/01 08:11:50;;;;;;;10.70;10.20;;;;;;;-143.83;100.00;62900.06;5088885;28;20471;-65
2022/11/01 08:14:15;;;;;;;10.50;10.00;;;;;;;-143.83;100.00;62900.06;5088062;28;20023;-64
2022/11/01 08:16:41;;;;;;;10.98;10.48;;;;;;;-143.83;100.00;62900.06;5082274;28;20035;-64
2022/11/01 08:19:07;;;;;;;10.80;10.30;;;;;;;-143.83;100.00;62900.06;5085143;28;20023;-64
2022/11/01 08:21:33;;;;;;;10.70;10.20;;;;;;;-143.83;100.00;62900.06;5078635;28;20023;-64
2022/11/01 08:23:58;;;;;;;10.57;10.07;;;;;;;-143.83;100.00;62900.06;5087890;28;20028;-63
2022/11/01 08:26:24;;;;;;;11.27;10.77;;;;;;;-143.83;100.00;62900.06;5080440;28;20028;-64
2022/11/01 08:28:51;;;;;;;10.35;9.88;;;;;;;-143.83;100.00;62900.06;5087839;28;20078;-63
2022/11/01 08:31:17;;;;;;;10.60;10.10;;;;;;;-143.83;100.00;62900.06;5088287;28;20479;-64
2022/11/01 08:33:42;;;;;;;10.25;9.80;;;;;;;-143.83;100.00;62900.06;5089021;28;20082;-64
2022/11/01 08:36:07;;;;;;;10.90;10.40;;;;;;;-143.83;100.00;62900.06;5078491;28;20028;-64
2022/11/01 08:38:33;;;;;;;10.80;10.30;;;;;;;-143.83;100.00;62900.06;5086136;28;20034;-64
2022/11/01 08:40:59;;;;;;;10.75;10.25;;;;;;;-143.83;100.00;62900.06;5091489;28;20032;-64
2022/11/01 08:43:26;;;;;;;10.80;10.30;;;;;;;-143.83;100.00;62900.06;5085008;28;20028;-64
2022/11/01 08:45:51;;;;;;;11.02;10.52;;;;;;;-143.83;100.00;62900.06;5086228;28;20337;-64
2022/11/01 08:48:16;;;;;;;10.45;9.95;;;;;;;-143.83;100.00;62900.06;5079395;28;20100;-64
2022/11/01 08:50:42;;;;;;;10.63;10.13;;;;;;;-143.83;100.00;62900.06;5086468;28;20039;-64
2022/11/01 08:53:10;;;;;;;10.98;10.48;;;;;;;-143.83;100.00;62900.06;5082619;28;20119;-65
2022/11/01 08:55:37;;;;;;;11.07;10.57;;;;;;;-143.83;100.00;62900.06;5080629;28;20029;-63
2022/11/01 08:58:04;;;;;;;11.23;10.73;;;;;;;-143.83;100.00;62900.06;5084985;28;20028;-64
2022/11/01 09:00:30;;;;;;;10.90;10.40;;;;;;;-143.83;100.00;62900.06;5086361;28;20399;-64
2022/11/01 09:02:55;;;;;;;11.20;10.70;;;;;;;-143.83;100.00;62900.06;5085551;28;20035;-64
2022/11/01 09:05:21;;;;;;;11.07;10.57;;;;;;;-143.83;100.00;62900.06;5084606;28;20024;-65
2022/11/01 09:07:47;;;;;;;10.50;10.00;;;;;;;-143.83;100.00;62900.06;5087943;28;20386;-64
2022/11/01 09:10:17;;;;;;;10.38;9.88;;;;;;;-143.83;100.00;62900.06;5080899;28;20024;-64
2022/11/01 09:12:43;;;;;;;10.63;10.13;;;;;;;-143.83;100.00;62900.06;5082712;28;20059;-64
2022/11/01 09:15:09;;;;;;;10.77;10.27;;;;;;;-143.83;100.00;62900.06;5084714;28;20475;-64
2022/11/01 09:17:35;;;;;;;10.73;10.23;;;;;;;-143.83;100.00;62900.06;5083645;28;20468;-64
2022/11/01 09:20:00;;;;;;;11.00;10.50;;;;;;;-143.83;100.00;62900.06;5083282;28;20034;-64
2022/11/01 09:22:26;;;;;;;10.88;10.38;;;;;;;-143.83;100.00;62900.06;5084166;28;20025;-64
2022/11/01 09:24:54;;;;;;;10.70;10.20;;;;;;;-143.83;100.00;62900.06;5083174;28;20063;-65
2022/11/01 09:27:20;;;;;;;11.18;10.68;;;;;;;-143.83;100.00;62900.06;5082313;28;20427;-64
2022/11/01 09:29:45;;;;;;;10.57;10.07;;;;;;;-143.83;100.00;62900.06;5082802;28;20173;-64
2022/11/01 09:32:10;;;;;;;11.20;10.70;;;;;;;-143.83;100.00;62900.06;5087626;28;20027;-64
2022/11/01 09:34:36;;;;;;;11.10;10.60;;;;;;;-143.83;100.00;62900.06;5089769;28;20026;-64
2022/11/01 09:37:01;;;;;;;11.85;11.25;;;;;;;-143.83;100.00;62900.06;5082743;28;20029;-64
2022/11/01 09:39:27;;;;;;;10.88;10.38;;;;;;;-143.83;100.00;62900.06;5078248;28;20069;-64
2022/11/01 09:42:01;;;;;;;10.70;10.20;;;;;;;-143.83;100.00;62900.06;5083704;28;20027;-64
2022/11/01 09:44:30;;;;;;;10.60;10.10;;;;;;;-143.83;100.00;62900.06;5081522;28;20115;-64
2022/11/01 09:47:07;;;;;;;10.50;10.00;;;;;;;-143.83;100.00;62900.06;5078350;28;20035;-64
2022/11/01 09:49:36;;;;;;;10.35;9.85;;;;;;;-143.83;100.00;62900.06;5078752;28;20063;-64
2022/11/01 09:52:04;;;;;;;11.13;10.63;;;;;;;-143.83;100.00;62900.06;5078284;28;20040;-64
2022/11/01 09:54:29;;;;;;;11.00;10.50;;;;;;;-143.83;100.00;62900.06;5084120;28;20024;-64
2022/11/01 09:57:15;;;;;;;11.18;10.65;;;;;;;-143.83;100.00;62900.06;5083383;28;20503;-64
2022/11/01 10:00:12;;;;;;;10.88;10.38;;;;;;;-143.83;100.00;62900.06;5088233;28;20024;-64
2022/11/01 10:02:56;;;;;;;10.27;9.77;;;;;;;-143.83;100.00;62900.06;5077613;28;20017;-64
2022/11/01 10:05:27;;;;;;;10.93;10.43;;;;;;;-143.83;100.00;62900.06;5083845;28;20479;-64
2022/11/01 10:08:10;;;;;;;10.95;10.45;;;;;;;-143.83;100.00;62900.06;5083812;28;20040;-63
2022/11/01 10:11:05;;;;;;;10.80;10.30;;;;;;;-143.83;100.00;62900.06;5087918;28;20035;-65
2022/11/01 10:13:34;;;;;;;10.43;9.93;;;;;;;-143.83;100.00;62900.06;5074065;28;20403;-63
2022/11/01 10:15:59;;;;;;;11.00;10.50;;;;;;;-143.83;100.00;62900.06;5079835;28;20024;-65
2022/11/01 10:18:30;;;;;;;10.30;9.80;;;;;;;-143.83;100.00;62900.06;5080126;28;20034;-64
2022/11/01 10:21:15;;;;;;;10.88;10.38;;;;;;;-143.83;100.00;62900.06;5085180;28;20036;-64
2022/11/01 10:23:47;;;;;;;10.98;10.48;;;;;;;-143.83;100.00;62900.06;5082106;28;20016;-64
2022/11/01 10:26:18;;;;;;;10.63;10.13;;;;;;;-143.83;100.00;62900.06;5082557;28;20025;-64
2022/11/01 10:28:59;;;;;;;10.50;10.00;;;;;;;-143.83;100.00;62900.06;5083295;28;20069;-63
2022/11/01 10:31:26;;;;;;;10.65;10.15;;;;;;;-143.83;100.00;62900.06;5077852;28;20114;-64
2022/11/01 10:34:20;;;;;;;10.73;10.23;;;;;;;-143.83;100.00;62900.06;5086645;28;20463;-64
2022/11/01 10:36:48;;;;;;;10.43;9.93;;;;;;;-143.83;100.00;62900.06;5073420;28;20029;-64
2022/11/01 10:39:25;;;;;;;11.10;10.60;;;;;;;-143.83;100.00;62900.06;5086172;28;20523;-64
2022/11/01 10:41:51;;;;;;;10.82;10.32;;;;;;;-143.83;100.00;62900.06;5081150;28;20443;-63
2022/11/01 10:44:32;;;;;;;10.90;10.40;;;;;;;-143.83;100.00;62900.06;5080164;28;20183;-64
2022/11/01 10:47:03;;;;;;;11.70;11.10;;;;;;;-143.83;100.00;62900.06;5076584;28;20472;-64
2022/11/01 10:49:36;;;;;;;10.90;10.40;;;;;;;-143.83;100.00;62900.06;5078500;28;20395;-63
2022/11/01 10:52:07;;;;;;;11.13;10.63;;;;;;;-143.83;100.00;62900.06;5080174;28;20040;-64
2022/11/01 10:54:36;;;;;;;11.60;11.00;;;;;;;-143.83;100.00;62900.06;5083931;28;20107;-64
2022/11/01 10:57:09;;;;;;;11.70;11.10;;;;;;;-143.83;100.00;62900.06;5084005;28;20435;-64
2022/11/01 10:59:39;;;;;;;11.27;10.77;;;;;;;-143.83;100.00;62900.06;5082857;28;20028;-64
2022/11/01 11:02:37;;;;;;;10.60;10.10;;;;;;;-143.83;100.00;62900.06;5076341;28;20403;-64
2022/11/01 11:05:03;;;;;;;10.93;10.43;;;;;;;-143.83;100.00;62900.06;5073043;28;20078;-63
2022/11/01 11:07:30;;;;;;;10.48;9.98;;;;;;;-143.83;100.00;62900.06;5085626;28;20055;-64
2022/11/01 11:09:56;;;;;;;11.23;10.73;;;;;;;-143.83;100.00;62900.06;5079918;28;20032;-63
2022/11/01 11:12:24;;;;;;;9.85;9.45;;;;;;;-143.83;100.00;62900.06;5082899;28;20031;-64
2022/11/01 11:14:54;;;;;;;10.75;10.25;;;;;;;-143.83;100.00;62900.06;5082949;28;20470;-64